Data for 01/06/2017

Time Sea-Level Adjusted Pressure Absolute Pressure Temperature Relative Humidity Dew Point   
(mb) (inHg) (mb) (inHg) (C) (F) (%) (C) (F)
00:05 1017 30.03 846 24.98 -18 -0.5 68 -22.5 -8.6
00:10 1017 30.03 846 24.98 -17.9 -0.2 68 -22.5 -8.4
00:15 1017 30.03 846 24.98 -17.8 -0 68 -22.3 -8.2
00:20 1017 30.03 846 24.98 -17.7 0.2 68 -22.2 -8
00:25 1016 30 846 24.98 -17.5 0.4 67 -22.2 -8
00:30 1016 30 846 24.98 -17.5 0.5 67 -22.2 -8
00:35 1016 30 846 24.98 -17.5 0.4 67 -22.2 -8
00:40 1017 30.03 846 24.98 -17.5 0.6 68 -22.1 -7.8
00:45 1016 30 846 24.98 -17.3 0.8 69 -21.8 -7.2
00:50 1016 30 846 24.98 -17.1 1.3 69 -21.5 -6.8
00:55 1016 30 846 24.98 -16.8 1.8 67 -21.5 -6.7
01:00 1016 30 846 24.98 -16.7 2 68 -21.3 -6.4
01:05 1017 30.03 846 24.98 -16.8 1.7 70 -21.1 -6
01:10 1017 30.03 846 24.98 -16.8 1.7 71 -21 -5.8
01:15 1016 30 846 24.98 -17 1.4 71 -21.1 -6
01:20 1016 30 846 24.98 -17.3 0.9 71 -21.3 -6.4
01:25 1016 30 846 24.98 -17.5 0.5 72 -21.3 -6.4
01:30 1016 30 846 24.98 -17.6 0.3 74 -21.2 -6.2
01:35 1016 30 846 24.98 -17.7 0.1 75 -21.2 -6.2
01:40 1016 30 846 24.98 -17.6 0.4 74 -21.2 -6.1
01:45 1016 30 846 24.98 -17.4 0.8 73 -21 -5.9
01:50 1016 30 846 24.98 -17.3 1 73 -21.1 -5.9
01:55 1016 30 846 24.98 -17.3 0.9 73 -21.1 -6
02:00 1017 30.03 846 24.98 -17.4 0.8 73 -21.2 -6.1
02:05 1017 30.03 846 24.98 -17.4 0.7 72 -21.3 -6.3
02:10 1017 30.03 846 24.98 -17.6 0.4 73 -21.3 -6.3
02:15 1017 30.03 846 24.98 -18 -0.4 73 -21.7 -7.1
02:20 1017 30.03 846 24.98 -18.5 -1.2 75 -21.8 -7.3
02:25 1017 30.03 846 24.98 -18.7 -1.6 75 -22.1 -7.8
02:30 1017 30.03 846 24.98 -18.7 -1.6 75 -22.1 -7.7
02:35 1017 30.03 846 24.98 -18.6 -1.4 76 -21.9 -7.4
02:40 1017 30.03 846 24.98 -18.4 -1.1 74 -21.9 -7.4
02:45 1017 30.03 846 24.98 -18.3 -0.9 75 -21.7 -7.1
02:50 1017 30.03 846 24.98 -18.2 -0.8 74 -21.8 -7.2
02:55 1017 30.03 846 24.98 -18.3 -0.9 73 -21.9 -7.5
03:00 1017 30.03 846 24.98 -18.2 -0.7 73 -21.9 -7.4
03:05 1016 30 846 24.98 -18.1 -0.6 73 -21.8 -7.3
03:10 1016 30 846 24.98 -18 -0.4 74 -21.7 -7
03:15 1016 30 846 24.98 -17.9 -0.2 73 -21.6 -7
03:20 1017 30.03 846 24.98 -18 -0.4 74 -21.5 -6.8
03:25 1017 30.03 846 24.98 -18 -0.3 74 -21.5 -6.7
03:30 1016 30 846 24.98 -17.9 -0.2 74 -21.5 -6.7
03:35 1016 30 846 24.98 -17.8 -0.1 73 -21.5 -6.7
03:40 1017 30.03 846 24.98 -17.7 0.1 73 -21.5 -6.7
03:45 1017 30.03 846 24.98 -17.8 0.1 73 -21.5 -6.7
03:50 1017 30.03 846 24.98 -17.8 -0 72 -21.6 -6.9
03:55 1017 30.03 846 24.98 -17.5 0.5 70 -21.7 -7
04:00 1017 30.03 846 24.98 -17.4 0.6 70 -21.6 -6.9
04:05 1017 30.03 846 24.98 -17.3 0.9 69 -21.7 -7
04:10 1017 30.03 846 24.98 -17.1 1.2 69 -21.5 -6.7
04:15 1017 30.03 846 24.98 -17 1.4 69 -21.4 -6.6
04:20 1017 30.03 846 24.98 -17 1.3 69 -21.4 -6.6
04:25 1017 30.03 846 24.98 -17.1 1.2 70 -21.4 -6.5
04:30 1017 30.03 846 24.98 -17.2 1 71 -21.3 -6.4
04:35 1017 30.03 846 24.98 -17.1 1.2 71 -21.2 -6.2
04:40 1017 30.03 846 24.98 -17.1 1.2 72 -21.1 -6
04:45 1017 30.03 846 24.98 -17.1 1.3 71 -21.2 -6.1
04:50 1017 30.03 846 24.98 -16.9 1.5 70 -21.2 -6.1
04:55 1017 30.03 846 24.98 -17.1 1.3 71 -21.1 -5.9
05:00 1017 30.03 846 24.98 -17.2 1.1 71 -21.2 -6.2
05:05 1017 30.03 846 24.98 -17.3 0.8 72 -21.2 -6.2
05:10 1017 30.03 846 24.98 -17.2 1 72 -21.1 -6
05:15 1017 30.03 846 24.98 -17.2 1 72 -21.1 -6
05:20 1017 30.03 846 24.98 -17.2 1 72 -21.2 -6.1
05:25 1017 30.03 846 24.98 -17.4 0.8 72 -21.3 -6.3
05:30 1017 30.03 846 24.98 -17.2 1.1 71 -21.3 -6.4
05:35 1017 30.03 846 24.98 -17 1.4 70 -21.2 -6.2
05:40 1017 30.03 846 24.98 -16.9 1.6 70 -21.2 -6.1
05:45 1017 30.03 846 24.98 -16.8 1.8 71 -20.9 -5.7
05:50 1017 30.03 846 24.98 -16.8 1.7 71 -20.9 -5.6
05:55 1017 30.03 846 24.98 -16.9 1.6 72 -20.8 -5.5
06:00 1017 30.03 846 24.98 -16.7 2 71 -20.7 -5.3
06:05 1017 30.03 846 24.98 -16.6 2.2 71 -20.6 -5.1
06:10 1017 30.03 846 24.98 -16.7 1.9 72 -20.7 -5.2
06:15 1016 30 846 24.98 -17.1 1.3 73 -20.8 -5.5
06:20 1016 30 846 24.98 -17.2 1.1 72 -21.1 -6
06:25 1016 30 846 24.98 -16.8 1.8 68 -21.3 -6.4
06:30 1016 30 846 24.98 -16.5 2.2 67 -21.4 -6.5
06:35 1016 30 846 24.98 -16.3 2.7 66 -21.3 -6.3
06:40 1016 30 846 24.98 -16.3 2.7 67 -21.1 -6.1
06:45 1017 30.03 846 24.98 -16.2 2.9 67 -21 -5.8
06:50 1016 30 846 24.98 -16.2 2.9 67 -20.9 -5.6
06:55 1016 30 846 24.98 -16.2 2.9 69 -20.7 -5.2
07:00 1016 30 846 24.98 -16.3 2.6 70 -20.6 -5.1
07:05 1016 30 846 24.98 -16.6 2.2 71 -20.6 -5.2
07:10 1017 30.03 846 24.98 -16.6 2.1 72 -20.6 -5.2
07:15 1017 30.03 846 24.98 -16.6 2.1 70 -20.8 -5.5
07:20 1017 30.03 846 24.98 -16.5 2.3 68 -21.2 -6.1
07:25 1016 30 846 24.98 -16.2 2.8 66 -21.1 -6.1
07:30 1016 30 846 24.98 -16.1 3.1 66 -21.1 -5.9
07:35 1016 30 846 24.98 -16 3.1 66 -21 -5.9
07:40 1016 30 846 24.98 -15.9 3.3 66 -20.8 -5.5
07:45 1016 30 846 24.98 -15.7 3.7 67 -20.6 -5.1
07:50 1016 30 845 24.95 -15.7 3.8 67 -20.5 -5
07:55 1016 30 845 24.95 -15.6 4 66 -20.5 -4.8
08:00 1016 30 845 24.95 -15.4 4.2 66 -20.4 -4.7
08:05 1016 30 845 24.95 -15.3 4.4 66 -20.4 -4.7
08:10 1016 30 845 24.95 -15.3 4.5 66 -20.3 -4.5
08:15 1016 30 845 24.95 -15.2 4.7 66 -20.2 -4.4
08:20 1016 30 845 24.95 -15.1 4.8 66 -20.1 -4.2
08:25 1016 30 846 24.98 -15.1 4.8 66 -20.1 -4.3
08:30 1016 30 846 24.98 -15.1 4.8 66 -20.1 -4.2
08:35 1016 30 846 24.98 -15.1 4.9 65 -20.2 -4.4
08:40 1017 30.03 846 24.98 -15 5.1 66 -20 -3.9
08:45 1017 30.03 846 24.98 -15 4.9 66 -20 -4
08:50 1017 30.03 846 24.98 -15.2 4.7 67 -20 -4.1
08:55 1017 30.03 846 24.98 -15.4 4.3 67 -20.2 -4.3
09:00 1017 30.03 846 24.98 -15.5 4.1 68 -20.1 -4.3
09:05 1017 30.03 846 24.98 -15.3 4.4 68 -20 -4
09:10 1017 30.03 846 24.98 -15.2 4.6 68 -19.9 -3.9
09:15 1017 30.03 846 24.98 -15.3 4.5 68 -20 -4
09:20 1017 30.03 846 24.98 -15.2 4.6 66 -20.2 -4.4
09:25 1016 30 846 24.98 -15.2 4.6 69 -19.7 -3.4
09:30 1016 30 846 24.98 -15.1 4.7 67 -20 -4
09:35 1017 30.03 846 24.98 -15.3 4.5 69 -19.8 -3.6
09:40 1017 30.03 846 24.98 -15.3 4.5 68 -19.9 -3.8
09:45 1017 30.03 846 24.98 -15.2 4.6 66 -20.1 -4.2
09:50 1017 30.03 846 24.98 -15.1 4.9 65 -20.2 -4.3
09:55 1017 30.03 846 24.98 -14.7 5.5 65 -20 -4
10:00 1017 30.03 846 24.98 -14.4 6 65 -19.7 -3.5
10:05 1017 30.03 846 24.98 -14.3 6.3 64 -19.6 -3.3
10:10 1017 30.03 846 24.98 -14.1 6.7 63 -19.7 -3.4
10:15 1017 30.03 846 24.98 -14 6.9 64 -19.5 -3
10:20 1017 30.03 846 24.98 -13.8 7.1 63 -19.4 -2.9
10:25 1017 30.03 846 24.98 -13.7 7.4 62 -19.5 -3.2
10:30 1017 30.03 846 24.98 -13.7 7.4 63 -19.3 -2.7
10:35 1017 30.03 846 24.98 -13.5 7.6 62 -19.3 -2.8
10:40 1017 30.03 846 24.98 -13.3 8.1 62 -19.2 -2.6
10:45 1017 30.03 846 24.98 -13 8.5 61 -19.1 -2.4
10:50 1017 30.03 846 24.98 -12.7 9.1 61 -18.9 -2
10:55 1017 30.03 846 24.98 -12.7 9.2 61 -18.8 -1.9
11:00 1017 30.03 846 24.98 -12.5 9.5 60 -18.8 -1.9
11:05 1017 30.03 846 24.98 -12.2 10.1 60 -18.5 -1.4
11:10 1017 30.03 846 24.98 -12.2 10.1 61 -18.3 -1
11:15 1017 30.03 847 25.01 -12.1 10.1 60 -18.3 -1
11:20 1017 30.03 846 24.98 -11.9 10.6 58 -18.5 -1.3
11:25 1017 30.03 846 24.98 -12 10.5 59 -18.5 -1.3
11:30 1017 30.03 847 25.01 -11.8 10.8 58 -18.5 -1.2
11:35 1017 30.03 847 25.01 -11.6 11.2 58 -18.3 -0.9
11:40 1017 30.03 846 24.98 -11.8 10.9 60 -18 -0.4
11:45 1017 30.03 846 24.98 -11.8 10.7 60 -18.2 -0.7
11:50 1017 30.03 846 24.98 -11.8 10.8 60 -18.1 -0.6
11:55 1017 30.03 847 25.01 -11.3 11.7 58 -18 -0.4
12:00 1017 30.03 846 24.98 -10.5 13 57 -17.6 0.4
12:05 1017 30.03 846 24.98 -10.4 13.4 55 -17.7 0.2
12:10 1017 30.03 846 24.98 -10.1 13.9 55 -17.5 0.5
12:15 1017 30.03 846 24.98 -9.3 15.2 53 -17.3 0.9
12:20 1017 30.03 846 24.98 -9.2 15.4 54 -17 1.4
12:25 1017 30.03 846 24.98 -9 15.7 54 -16.7 1.9
12:30 1017 30.03 846 24.98 -9 15.8 53 -16.8 1.7
12:35 1017 30.03 846 24.98 -8.7 16.3 54 -16.4 2.4
12:40 1017 30.03 846 24.98 -9 15.8 55 -16.6 2.2
12:45 1017 30.03 846 24.98 -9.8 14.4 57 -16.7 1.9
12:50 1017 30.03 846 24.98 -9.7 14.6 54 -17.3 0.9
12:55 1017 30.03 846 24.98 -10 14 57 -16.9 1.6
13:00 1017 30.03 846 24.98 -10.9 12.4 57 -17.7 0.1
13:05 1017 30.03 846 24.98 -10.7 12.8 56 -17.7 0.1
13:10 1017 30.03 846 24.98 -10.5 13.2 56 -17.8 0
13:15 1017 30.03 846 24.98 -10.6 12.9 57 -17.7 0.2
13:20 1017 30.03 846 24.98 -9.9 14.3 53 -17.7 0.2
13:25 1017 30.03 846 24.98 -10.4 13.3 57 -17.5 0.6
13:30 1017 30.03 846 24.98 -10.2 13.7 53 -18.1 -0.5
13:35 1017 30.03 846 24.98 -9.7 14.6 50 -18.1 -0.7
13:40 1017 30.03 846 24.98 -10 13.9 52 -18.1 -0.7
13:45 1017 30.03 846 24.98 -9.7 14.5 52 -17.9 -0.2
13:50 1017 30.03 846 24.98 -9.6 14.7 52 -17.8 0
13:55 1017 30.03 846 24.98 -9.7 14.6 51 -18.1 -0.5
14:00 1017 30.03 846 24.98 -9.3 15.2 48 -18.4 -1.1
14:05 1017 30.03 846 24.98 -8.9 15.9 47 -18.4 -1.1
14:10 1017 30.03 846 24.98 -8.8 16.1 40 -20.1 -4.1
14:15 1017 30.03 846 24.98 -8.9 16 44 -19.2 -2.5
14:20 1017 30.03 846 24.98 -9.2 15.4 46 -18.8 -1.9
14:25 1017 30.03 846 24.98 -8.7 16.3 44 -18.8 -1.9
14:30 1017 30.03 846 24.98 -8.8 16.1 45 -18.7 -1.7
14:35 1017 30.03 846 24.98 -8 17.6 41 -19 -2.2
14:40 1017 30.03 846 24.98 -8.4 16.9 43 -18.9 -2
14:45 1017 30.03 846 24.98 -8.2 17.3 44 -18.4 -1.1
14:50 1017 30.03 846 24.98 -8.2 17.2 42 -18.9 -2.1
14:55 1017 30.03 846 24.98 -9 15.8 43 -19.4 -3
15:00 1017 30.03 846 24.98 -9 15.8 45 -19 -2.2
15:05 1017 30.03 846 24.98 -8.5 16.8 43 -19 -2.2
15:10 1017 30.03 846 24.98 -8.2 17.2 42 -19 -2.2
15:15 1017 30.03 846 24.98 -7.7 18.2 41 -18.7 -1.6
15:20 1017 30.03 846 24.98 -7.7 18.2 43 -18.1 -0.6
15:25 1017 30.03 846 24.98 -8.1 17.5 46 -17.9 -0.2
15:30 1017 30.03 846 24.98 -7.6 18.3 45 -17.6 0.3
15:35 1017 30.03 846 24.98 -7.5 18.6 46 -17.3 0.9
15:40 1017 30.03 846 24.98 -7.5 18.5 46 -17.3 0.9
15:45 1017 30.03 846 24.98 -7.8 17.9 46 -17.4 0.6
15:50 1017 30.03 846 24.98 -7.9 17.7 46 -17.5 0.5
15:55 1017 30.03 846 24.98 -8 17.6 47 -17.5 0.5
16:00 1017 30.03 846 24.98 -8.2 17.2 49 -17.2 1
16:05 1017 30.03 846 24.98 -8.1 17.3 45 -18.2 -0.7
16:10 1017 30.03 846 24.98 -8.6 16.6 46 -18.2 -0.8
16:15 1017 30.03 846 24.98 -8.5 16.6 46 -18.3 -1
16:20 1017 30.03 846 24.98 -8.4 17 46 -18.1 -0.5
16:25 1017 30.03 846 24.98 -8.1 17.4 44 -18.3 -0.9
16:30 1017 30.03 846 24.98 -8.3 17.1 45 -18.3 -1
16:35 1017 30.03 846 24.98 -8.7 16.3 45 -18.8 -1.8
16:40 1017 30.03 846 24.98 -9 15.9 46 -18.7 -1.7
16:45 1017 30.03 846 24.98 -8.7 16.4 50 -17.4 0.7
16:50 1017 30.03 846 24.98 -8.7 16.4 51 -17.1 1.2
16:55 1017 30.03 846 24.98 -9 15.8 51 -17.4 0.7
17:00 1017 30.03 846 24.98 -9 15.9 50 -17.5 0.4
17:05 1017 30.03 846 24.98 -8.8 16.2 51 -17.3 0.9
17:10 1017 30.03 846 24.98 -8.6 16.5 46 -18.3 -1
17:15 1017 30.03 846 24.98 -8.6 16.6 46 -18.2 -0.8
17:20 1017 30.03 846 24.98 -8.6 16.5 48 -17.9 -0.2
17:25 1017 30.03 846 24.98 -8.7 16.4 47 -18.1 -0.5
17:30 1017 30.03 846 24.98 -8.9 16 48 -18 -0.5
17:35 1017 30.03 846 24.98 -8.7 16.3 46 -18.3 -0.9
17:40 1017 30.03 847 25.01 -8.6 16.5 47 -18.1 -0.6
17:45 1017 30.03 847 25.01 -8.7 16.4 47 -18.1 -0.5
17:50 1017 30.03 847 25.01 -9.1 15.6 49 -18 -0.4
17:55 1017 30.03 847 25.01 -9.4 15.1 50 -18.1 -0.6
18:00 1017 30.03 847 25.01 -9.7 14.6 50 -18.3 -0.9
18:05 1017 30.03 847 25.01 -9.9 14.3 51 -18.2 -0.7
18:10 1018 30.06 847 25.01 -10 13.9 53 -18 -0.4
18:15 1018 30.06 847 25.01 -10.1 13.9 54 -17.8 -0
18:20 1018 30.06 847 25.01 -10.1 13.9 54 -17.6 0.3
18:25 1018 30.06 847 25.01 -10.2 13.7 55 -17.6 0.4
18:30 1018 30.06 847 25.01 -10.3 13.5 55 -17.7 0.1
18:35 1018 30.06 847 25.01 -10.3 13.5 55 -17.8 0
18:40 1018 30.06 847 25.01 -10.3 13.5 54 -17.9 -0.2
18:45 1018 30.06 847 25.01 -10.3 13.4 54 -17.9 -0.2
18:50 1018 30.06 847 25.01 -10.3 13.6 55 -17.7 0.2
18:55 1018 30.06 847 25.01 -10.3 13.5 56 -17.4 0.7
19:00 1018 30.06 847 25.01 -10.3 13.5 55 -17.7 0.1
19:05 1018 30.06 847 25.01 -10.3 13.4 53 -18.1 -0.6
19:10 1018 30.06 847 25.01 -10.2 13.7 55 -17.6 0.4
19:15 1018 30.06 847 25.01 -10.3 13.5 56 -17.6 0.4
19:20 1018 30.06 847 25.01 -10.5 13.1 56 -17.6 0.4
19:25 1018 30.06 847 25.01 -10.6 13 56 -17.7 0.2
19:30 1018 30.06 847 25.01 -10.6 13 57 -17.5 0.4
19:35 1018 30.06 847 25.01 -10.6 12.9 57 -17.6 0.3
19:40 1018 30.06 847 25.01 -10.7 12.8 56 -17.8 -0.1
19:45 1018 30.06 847 25.01 -10.7 12.8 56 -17.9 -0.2
19:50 1018 30.06 847 25.01 -10.7 12.8 57 -17.6 0.2
19:55 1018 30.06 847 25.01 -10.8 12.5 58 -17.5 0.5
20:00 1018 30.06 847 25.01 -10.7 12.7 58 -17.4 0.6
20:05 1018 30.06 847 25.01 -10.6 12.9 58 -17.4 0.7
20:10 1018 30.06 847 25.01 -10.7 12.8 61 -16.9 1.6
20:15 1018 30.06 847 25.01 -10.7 12.7 60 -17.1 1.2
20:20 1018 30.06 847 25.01 -10.7 12.8 60 -17 1.4
20:25 1018 30.06 847 25.01 -10.5 13 60 -16.9 1.5
20:30 1018 30.06 847 25.01 -10.5 13.1 62 -16.4 2.5
20:35 1018 30.06 847 25.01 -10.4 13.2 61 -16.5 2.3
20:40 1018 30.06 847 25.01 -10.3 13.6 61 -16.4 2.6
20:45 1018 30.06 848 25.04 -10.3 13.5 61 -16.5 2.3
20:50 1018 30.06 848 25.04 -10.4 13.3 61 -16.6 2.1
20:55 1018 30.06 848 25.04 -10.4 13.4 59 -16.8 1.7
21:00 1018 30.06 848 25.04 -10.3 13.4 60 -16.6 2
21:05 1019 30.09 848 25.04 -10.4 13.3 59 -17 1.5
21:10 1019 30.09 848 25.04 -10.3 13.5 59 -16.8 1.7
21:15 1019 30.09 848 25.04 -10.3 13.4 59 -16.9 1.5
21:20 1019 30.09 848 25.04 -10.1 13.8 57 -17.1 1.2
21:25 1019 30.09 848 25.04 -10.4 13.3 59 -17 1.4
21:30 1019 30.09 848 25.04 -10.7 12.7 58 -17.4 0.7
21:35 1019 30.09 848 25.04 -10.7 12.7 58 -17.5 0.4
21:40 1019 30.09 848 25.04 -10.8 12.5 58 -17.6 0.3
21:45 1019 30.09 848 25.04 -10.7 12.8 56 -17.8 -0.1
21:50 1019 30.09 848 25.04 -10.5 13 56 -17.6 0.3
21:55 1019 30.09 848 25.04 -10.8 12.5 57 -17.7 0.1
22:00 1019 30.09 848 25.04 -11 12.2 57 -17.8 -0.1
22:05 1019 30.09 848 25.04 -11 12.1 57 -18 -0.4
22:10 1019 30.09 848 25.04 -11 12.3 56 -18.1 -0.6
22:15 1019 30.09 848 25.04 -11 12.3 56 -18 -0.4
22:20 1019 30.09 848 25.04 -11.2 11.9 56 -18.3 -0.9
22:25 1019 30.09 848 25.04 -11 12.3 56 -18.2 -0.7
22:30 1019 30.09 848 25.04 -10.9 12.3 55 -18.3 -0.9
22:35 1019 30.09 848 25.04 -10.8 12.5 55 -18.1 -0.7
22:40 1019 30.09 848 25.04 -10.9 12.4 54 -18.4 -1.1
22:45 1019 30.09 848 25.04 -10.9 12.5 54 -18.4 -1.2
22:50 1019 30.09 848 25.04 -11 12.3 55 -18.4 -1.2
22:55 1019 30.09 848 25.04 -11 12.2 55 -18.4 -1.1
23:00 1019 30.09 848 25.04 -11 12.3 54 -18.5 -1.3
23:05 1019 30.09 848 25.04 -10.9 12.3 54 -18.6 -1.4
23:10 1019 30.09 848 25.04 -10.9 12.4 54 -18.6 -1.4
23:15 1019 30.09 849 25.07 -10.9 12.3 54 -18.6 -1.4
23:20 1019 30.09 849 25.07 -11.1 12 54 -18.6 -1.6
23:25 1019 30.09 849 25.07 -11.3 11.7 55 -18.7 -1.7
23:30 1020 30.12 849 25.07 -11.3 11.6 54 -18.8 -1.9
23:35 1020 30.12 849 25.07 -11.2 11.8 54 -18.7 -1.7
23:40 1020 30.12 849 25.07 -11.4 11.5 56 -18.6 -1.5
23:45 1020 30.12 849 25.07 -11.4 11.5 56 -18.4 -1.2
23:50 1020 30.12 849 25.07 -11.4 11.6 56 -18.5 -1.3
23:55 1020 30.12 849 25.07 -11.2 11.8 56 -18.4 -1.1
24:00 1020 30.12 849 25.07 -11.1 11.9 54 -18.7 -1.6